sensor_id;sensor_type;location;lat;lon;timestamp;P1;durP1;ratioP1;P2;durP2;ratioP2
59876;SDS011;45749;51.140;17.184;2022-12-07T00:01:20;16.73;;;10.00;;
59876;SDS011;45749;51.140;17.184;2022-12-07T00:03:51;14.60;;;9.25;;
59876;SDS011;45749;51.140;17.184;2022-12-07T00:06:20;14.03;;;8.78;;
59876;SDS011;45749;51.140;17.184;2022-12-07T00:08:46;11.45;;;8.75;;
59876;SDS011;45749;51.140;17.184;2022-12-07T00:11:17;13.95;;;8.93;;
59876;SDS011;45749;51.140;17.184;2022-12-07T00:13:46;11.78;;;8.78;;
59876;SDS011;45749;51.140;17.184;2022-12-07T00:16:18;13.28;;;8.65;;
59876;SDS011;45749;51.140;17.184;2022-12-07T00:18:46;16.95;;;10.08;;
59876;SDS011;45749;51.140;17.184;2022-12-07T00:21:13;24.63;;;11.48;;
59876;SDS011;45749;51.140;17.184;2022-12-07T00:23:44;21.75;;;10.88;;
59876;SDS011;45749;51.140;17.184;2022-12-07T00:26:13;16.55;;;10.72;;
59876;SDS011;45749;51.140;17.184;2022-12-07T00:28:46;13.20;;;7.60;;
59876;SDS011;45749;51.140;17.184;2022-12-07T00:31:19;11.35;;;7.28;;
59876;SDS011;45749;51.140;17.184;2022-12-07T00:33:48;11.18;;;7.00;;
59876;SDS011;45749;51.140;17.184;2022-12-07T00:36:15;10.65;;;6.33;;
59876;SDS011;45749;51.140;17.184;2022-12-07T00:38:44;11.03;;;6.90;;
59876;SDS011;45749;51.140;17.184;2022-12-07T00:41:11;10.18;;;5.75;;
59876;SDS011;45749;51.140;17.184;2022-12-07T00:43:40;10.78;;;6.35;;
59876;SDS011;45749;51.140;17.184;2022-12-07T00:46:08;8.90;;;6.15;;
59876;SDS011;45749;51.140;17.184;2022-12-07T00:48:35;9.23;;;5.90;;
59876;SDS011;45749;51.140;17.184;2022-12-07T00:51:01;8.48;;;5.42;;
59876;SDS011;45749;51.140;17.184;2022-12-07T00:53:28;7.85;;;5.40;;
59876;SDS011;45749;51.140;17.184;2022-12-07T00:55:55;5.78;;;5.00;;
59876;SDS011;45749;51.140;17.184;2022-12-07T00:58:21;8.13;;;5.37;;
59876;SDS011;45749;51.140;17.184;2022-12-07T01:00:48;6.78;;;5.17;;
59876;SDS011;45749;51.140;17.184;2022-12-07T01:03:15;7.20;;;5.72;;
59876;SDS011;45749;51.140;17.184;2022-12-07T01:05:49;7.53;;;5.42;;
59876;SDS011;45749;51.140;17.184;2022-12-07T01:08:17;7.05;;;5.37;;
59876;SDS011;45749;51.140;17.184;2022-12-07T01:10:44;7.95;;;5.12;;
59876;SDS011;45749;51.140;17.184;2022-12-07T01:13:10;7.67;;;4.92;;
59876;SDS011;45749;51.140;17.184;2022-12-07T01:15:40;6.30;;;4.92;;
59876;SDS011;45749;51.140;17.184;2022-12-07T01:18:08;7.55;;;4.45;;
59876;SDS011;45749;51.140;17.184;2022-12-07T01:20:34;6.40;;;4.90;;
59876;SDS011;45749;51.140;17.184;2022-12-07T01:23:01;5.80;;;3.98;;
59876;SDS011;45749;51.140;17.184;2022-12-07T01:25:27;6.90;;;5.05;;
59876;SDS011;45749;51.140;17.184;2022-12-07T01:27:53;6.12;;;4.75;;
59876;SDS011;45749;51.140;17.184;2022-12-07T01:30:19;7.60;;;4.92;;
59876;SDS011;45749;51.140;17.184;2022-12-07T01:32:45;6.55;;;4.08;;
59876;SDS011;45749;51.140;17.184;2022-12-07T01:35:11;6.53;;;3.92;;
59876;SDS011;45749;51.140;17.184;2022-12-07T01:37:38;6.55;;;4.42;;
59876;SDS011;45749;51.140;17.184;2022-12-07T01:40:05;7.85;;;4.12;;
59876;SDS011;45749;51.140;17.184;2022-12-07T01:42:33;5.22;;;4.00;;
59876;SDS011;45749;51.140;17.184;2022-12-07T01:48:06;6.67;;;4.62;;
59876;SDS011;45749;51.140;17.184;2022-12-07T01:50:35;6.00;;;4.47;;
59876;SDS011;45749;51.140;17.184;2022-12-07T01:53:03;5.25;;;4.20;;
59876;SDS011;45749;51.140;17.184;2022-12-07T01:55:32;7.20;;;4.53;;
59876;SDS011;45749;51.140;17.184;2022-12-07T01:58:00;6.55;;;4.20;;
59876;SDS011;45749;51.140;17.184;2022-12-07T02:00:26;5.47;;;3.75;;
59876;SDS011;45749;51.140;17.184;2022-12-07T02:02:57;5.03;;;3.60;;
59876;SDS011;45749;51.140;17.184;2022-12-07T02:05:32;4.85;;;3.12;;
59876;SDS011;45749;51.140;17.184;2022-12-07T02:08:02;5.15;;;3.50;;
59876;SDS011;45749;51.140;17.184;2022-12-07T02:10:30;5.22;;;3.42;;
59876;SDS011;45749;51.140;17.184;2022-12-07T02:13:08;5.60;;;3.95;;
59876;SDS011;45749;51.140;17.184;2022-12-07T02:35:34;4.40;;;2.90;;
59876;SDS011;45749;51.140;17.184;2022-12-07T02:38:15;3.87;;;2.60;;
59876;SDS011;45749;51.140;17.184;2022-12-07T02:40:55;3.85;;;2.65;;
59876;SDS011;45749;51.140;17.184;2022-12-07T02:43:42;6.92;;;4.25;;
59876;SDS011;45749;51.140;17.184;2022-12-07T02:46:11;4.95;;;2.25;;
59876;SDS011;45749;51.140;17.184;2022-12-07T02:48:51;4.25;;;2.37;;
59876;SDS011;45749;51.140;17.184;2022-12-07T02:51:18;4.05;;;2.65;;
59876;SDS011;45749;51.140;17.184;2022-12-07T02:53:45;4.45;;;2.87;;
59876;SDS011;45749;51.140;17.184;2022-12-07T03:11:23;3.85;;;2.75;;
59876;SDS011;45749;51.140;17.184;2022-12-07T03:13:59;9.80;;;4.50;;
59876;SDS011;45749;51.140;17.184;2022-12-07T03:16:39;8.43;;;3.52;;
59876;SDS011;45749;51.140;17.184;2022-12-07T03:19:15;5.55;;;2.83;;
59876;SDS011;45749;51.140;17.184;2022-12-07T03:22:07;6.53;;;3.05;;
59876;SDS011;45749;51.140;17.184;2022-12-07T03:24:24;7.80;;;4.42;;
59876;SDS011;45749;51.140;17.184;2022-12-07T03:26:55;5.28;;;2.52;;
59876;SDS011;45749;51.140;17.184;2022-12-07T03:29:54;3.45;;;2.58;;
59876;SDS011;45749;51.140;17.184;2022-12-07T03:32:12;4.92;;;3.30;;
59876;SDS011;45749;51.140;17.184;2022-12-07T03:35:19;3.55;;;2.62;;
59876;SDS011;45749;51.140;17.184;2022-12-07T03:37:55;5.50;;;2.35;;
59876;SDS011;45749;51.140;17.184;2022-12-07T03:40:43;3.02;;;2.02;;
59876;SDS011;45749;51.140;17.184;2022-12-07T03:43:12;2.87;;;1.80;;
59876;SDS011;45749;51.140;17.184;2022-12-07T03:45:42;4.75;;;3.00;;
59876;SDS011;45749;51.140;17.184;2022-12-07T03:50:53;3.70;;;2.77;;
59876;SDS011;45749;51.140;17.184;2022-12-07T03:53:30;5.45;;;4.05;;
59876;SDS011;45749;51.140;17.184;2022-12-07T03:56:06;3.70;;;3.08;;
59876;SDS011;45749;51.140;17.184;2022-12-07T03:58:35;7.55;;;4.60;;
59876;SDS011;45749;51.140;17.184;2022-12-07T04:01:02;7.83;;;5.05;;
59876;SDS011;45749;51.140;17.184;2022-12-07T04:03:28;2.80;;;1.92;;
59876;SDS011;45749;51.140;17.184;2022-12-07T04:05:54;3.22;;;1.85;;
59876;SDS011;45749;51.140;17.184;2022-12-07T04:08:20;4.22;;;2.30;;
59876;SDS011;45749;51.140;17.184;2022-12-07T04:10:46;4.30;;;2.20;;
59876;SDS011;45749;51.140;17.184;2022-12-07T04:13:12;9.70;;;4.70;;
59876;SDS011;45749;51.140;17.184;2022-12-07T04:15:38;5.08;;;2.17;;
59876;SDS011;45749;51.140;17.184;2022-12-07T04:18:04;4.45;;;3.08;;
59876;SDS011;45749;51.140;17.184;2022-12-07T04:20:30;18.25;;;10.68;;
59876;SDS011;45749;51.140;17.184;2022-12-07T04:22:56;4.50;;;2.72;;
59876;SDS011;45749;51.140;17.184;2022-12-07T04:25:22;4.65;;;3.10;;
59876;SDS011;45749;51.140;17.184;2022-12-07T04:27:47;7.83;;;4.83;;
59876;SDS011;45749;51.140;17.184;2022-12-07T04:30:13;11.95;;;6.72;;
59876;SDS011;45749;51.140;17.184;2022-12-07T04:32:39;10.15;;;6.35;;
59876;SDS011;45749;51.140;17.184;2022-12-07T04:35:06;17.77;;;9.45;;
59876;SDS011;45749;51.140;17.184;2022-12-07T04:37:33;11.35;;;5.80;;
59876;SDS011;45749;51.140;17.184;2022-12-07T04:39:58;16.85;;;8.78;;
59876;SDS011;45749;51.140;17.184;2022-12-07T04:42:24;19.87;;;9.45;;
59876;SDS011;45749;51.140;17.184;2022-12-07T04:44:50;6.42;;;3.67;;
59876;SDS011;45749;51.140;17.184;2022-12-07T04:47:16;7.08;;;4.05;;
59876;SDS011;45749;51.140;17.184;2022-12-07T04:49:42;12.10;;;6.12;;
59876;SDS011;45749;51.140;17.184;2022-12-07T04:52:08;5.53;;;3.27;;
59876;SDS011;45749;51.140;17.184;2022-12-07T04:54:34;4.95;;;2.65;;
59876;SDS011;45749;51.140;17.184;2022-12-07T04:57:00;8.58;;;4.05;;
59876;SDS011;45749;51.140;17.184;2022-12-07T04:59:26;5.03;;;3.50;;
59876;SDS011;45749;51.140;17.184;2022-12-07T05:01:52;7.12;;;3.45;;
59876;SDS011;45749;51.140;17.184;2022-12-07T05:04:18;3.45;;;2.95;;
59876;SDS011;45749;51.140;17.184;2022-12-07T05:06:44;5.87;;;3.22;;
59876;SDS011;45749;51.140;17.184;2022-12-07T05:09:10;4.10;;;3.17;;
59876;SDS011;45749;51.140;17.184;2022-12-07T05:11:36;13.70;;;7.45;;
59876;SDS011;45749;51.140;17.184;2022-12-07T05:16:42;16.75;;;6.35;;
59876;SDS011;45749;51.140;17.184;2022-12-07T05:19:13;10.35;;;4.90;;
59876;SDS011;45749;51.140;17.184;2022-12-07T05:21:40;9.08;;;4.05;;
59876;SDS011;45749;51.140;17.184;2022-12-07T05:24:07;8.28;;;5.15;;
59876;SDS011;45749;51.140;17.184;2022-12-07T05:26:35;6.22;;;3.60;;
59876;SDS011;45749;51.140;17.184;2022-12-07T05:29:01;4.92;;;3.02;;
59876;SDS011;45749;51.140;17.184;2022-12-07T05:31:28;6.35;;;4.58;;
59876;SDS011;45749;51.140;17.184;2022-12-07T05:33:54;6.95;;;4.70;;
59876;SDS011;45749;51.140;17.184;2022-12-07T05:36:20;7.12;;;5.00;;
59876;SDS011;45749;51.140;17.184;2022-12-07T05:38:47;11.43;;;5.95;;
59876;SDS011;45749;51.140;17.184;2022-12-07T05:41:14;10.90;;;6.25;;
59876;SDS011;45749;51.140;17.184;2022-12-07T05:44:01;8.60;;;5.72;;
59876;SDS011;45749;51.140;17.184;2022-12-07T05:46:28;7.87;;;6.20;;
59876;SDS011;45749;51.140;17.184;2022-12-07T05:48:54;8.70;;;6.30;;
59876;SDS011;45749;51.140;17.184;2022-12-07T05:51:20;8.93;;;5.53;;
59876;SDS011;45749;51.140;17.184;2022-12-07T05:53:46;7.53;;;5.42;;
59876;SDS011;45749;51.140;17.184;2022-12-07T05:56:12;7.55;;;5.45;;
59876;SDS011;45749;51.140;17.184;2022-12-07T05:58:38;8.73;;;5.90;;
59876;SDS011;45749;51.140;17.184;2022-12-07T06:01:22;9.88;;;6.08;;
59876;SDS011;45749;51.140;17.184;2022-12-07T06:03:48;9.75;;;7.28;;
59876;SDS011;45749;51.140;17.184;2022-12-07T06:06:14;10.80;;;7.12;;
59876;SDS011;45749;51.140;17.184;2022-12-07T06:08:40;13.53;;;7.80;;
59876;SDS011;45749;51.140;17.184;2022-12-07T06:11:06;14.73;;;9.55;;
59876;SDS011;45749;51.140;17.184;2022-12-07T06:13:50;13.45;;;8.20;;
59876;SDS011;45749;51.140;17.184;2022-12-07T06:16:16;15.15;;;10.00;;
59876;SDS011;45749;51.140;17.184;2022-12-07T06:18:42;14.18;;;9.68;;
59876;SDS011;45749;51.140;17.184;2022-12-07T06:21:08;14.70;;;9.65;;
59876;SDS011;45749;51.140;17.184;2022-12-07T06:23:34;14.60;;;9.08;;
59876;SDS011;45749;51.140;17.184;2022-12-07T06:26:00;15.65;;;9.73;;
59876;SDS011;45749;51.140;17.184;2022-12-07T06:28:26;14.30;;;9.95;;
59876;SDS011;45749;51.140;17.184;2022-12-07T06:31:01;16.12;;;11.20;;
59876;SDS011;45749;51.140;17.184;2022-12-07T06:33:24;16.77;;;10.30;;
59876;SDS011;45749;51.140;17.184;2022-12-07T06:35:50;17.55;;;11.38;;
59876;SDS011;45749;51.140;17.184;2022-12-07T06:38:16;17.62;;;11.57;;
59876;SDS011;45749;51.140;17.184;2022-12-07T06:40:42;16.37;;;9.98;;
59876;SDS011;45749;51.140;17.184;2022-12-07T06:43:08;18.25;;;11.93;;
59876;SDS011;45749;51.140;17.184;2022-12-07T06:45:34;17.45;;;11.70;;
59876;SDS011;45749;51.140;17.184;2022-12-07T06:48:00;18.85;;;12.28;;
59876;SDS011;45749;51.140;17.184;2022-12-07T06:50:26;19.50;;;11.53;;
59876;SDS011;45749;51.140;17.184;2022-12-07T06:52:52;20.82;;;12.58;;
59876;SDS011;45749;51.140;17.184;2022-12-07T06:55:18;17.30;;;10.98;;
59876;SDS011;45749;51.140;17.184;2022-12-07T06:57:44;22.55;;;13.18;;
59876;SDS011;45749;51.140;17.184;2022-12-07T07:00:10;17.73;;;12.43;;
59876;SDS011;45749;51.140;17.184;2022-12-07T07:02:38;28.70;;;14.87;;
59876;SDS011;45749;51.140;17.184;2022-12-07T07:05:04;18.70;;;11.93;;
59876;SDS011;45749;51.140;17.184;2022-12-07T07:07:30;22.60;;;12.45;;
59876;SDS011;45749;51.140;17.184;2022-12-07T07:09:56;18.75;;;11.78;;
59876;SDS011;45749;51.140;17.184;2022-12-07T07:12:22;22.00;;;13.20;;
59876;SDS011;45749;51.140;17.184;2022-12-07T07:14:48;19.70;;;12.23;;
59876;SDS011;45749;51.140;17.184;2022-12-07T07:17:14;24.15;;;14.07;;
59876;SDS011;45749;51.140;17.184;2022-12-07T07:19:40;22.25;;;13.40;;
59876;SDS011;45749;51.140;17.184;2022-12-07T07:22:06;17.80;;;11.30;;
59876;SDS011;45749;51.140;17.184;2022-12-07T07:24:32;19.17;;;12.13;;
59876;SDS011;45749;51.140;17.184;2022-12-07T07:26:58;19.05;;;12.25;;
59876;SDS011;45749;51.140;17.184;2022-12-07T07:29:24;16.48;;;11.60;;
59876;SDS011;45749;51.140;17.184;2022-12-07T07:31:50;19.50;;;11.33;;
59876;SDS011;45749;51.140;17.184;2022-12-07T07:34:16;16.45;;;11.05;;
59876;SDS011;45749;51.140;17.184;2022-12-07T07:36:42;19.02;;;11.50;;
59876;SDS011;45749;51.140;17.184;2022-12-07T07:39:09;28.07;;;14.70;;
59876;SDS011;45749;51.140;17.184;2022-12-07T07:41:37;36.58;;;17.17;;
59876;SDS011;45749;51.140;17.184;2022-12-07T07:44:04;94.37;;;35.83;;
59876;SDS011;45749;51.140;17.184;2022-12-07T07:46:30;73.15;;;30.27;;
59876;SDS011;45749;51.140;17.184;2022-12-07T07:48:57;24.85;;;13.35;;
59876;SDS011;45749;51.140;17.184;2022-12-07T07:51:24;22.13;;;13.53;;
59876;SDS011;45749;51.140;17.184;2022-12-07T07:53:50;18.25;;;12.07;;
59876;SDS011;45749;51.140;17.184;2022-12-07T07:56:15;18.85;;;11.95;;
59876;SDS011;45749;51.140;17.184;2022-12-07T07:58:41;22.05;;;15.75;;
59876;SDS011;45749;51.140;17.184;2022-12-07T08:01:07;24.02;;;16.25;;
59876;SDS011;45749;51.140;17.184;2022-12-07T08:03:34;20.30;;;12.65;;
59876;SDS011;45749;51.140;17.184;2022-12-07T08:06:01;18.82;;;12.78;;
59876;SDS011;45749;51.140;17.184;2022-12-07T08:08:28;19.35;;;11.70;;
59876;SDS011;45749;51.140;17.184;2022-12-07T08:10:54;18.05;;;10.98;;
59876;SDS011;45749;51.140;17.184;2022-12-07T08:13:20;15.98;;;11.33;;
59876;SDS011;45749;51.140;17.184;2022-12-07T08:15:47;17.45;;;10.68;;
59876;SDS011;45749;51.140;17.184;2022-12-07T08:18:14;17.37;;;11.15;;
59876;SDS011;45749;51.140;17.184;2022-12-07T08:20:41;15.40;;;9.88;;
59876;SDS011;45749;51.140;17.184;2022-12-07T08:23:08;18.35;;;10.93;;
59876;SDS011;45749;51.140;17.184;2022-12-07T08:25:35;15.83;;;10.10;;
59876;SDS011;45749;51.140;17.184;2022-12-07T08:28:02;15.40;;;9.58;;
59876;SDS011;45749;51.140;17.184;2022-12-07T08:30:28;16.57;;;12.33;;
59876;SDS011;45749;51.140;17.184;2022-12-07T08:32:55;17.67;;;10.95;;
59876;SDS011;45749;51.140;17.184;2022-12-07T08:35:22;21.40;;;11.40;;
59876;SDS011;45749;51.140;17.184;2022-12-07T08:37:48;19.15;;;10.98;;
59876;SDS011;45749;51.140;17.184;2022-12-07T08:40:14;16.57;;;11.38;;
59876;SDS011;45749;51.140;17.184;2022-12-07T08:42:59;22.05;;;12.30;;
59876;SDS011;45749;51.140;17.184;2022-12-07T08:45:16;16.20;;;11.78;;
59876;SDS011;45749;51.140;17.184;2022-12-07T08:47:51;16.02;;;10.70;;
59876;SDS011;45749;51.140;17.184;2022-12-07T08:50:24;16.25;;;9.53;;
59876;SDS011;45749;51.140;17.184;2022-12-07T08:52:50;14.75;;;9.68;;
59876;SDS011;45749;51.140;17.184;2022-12-07T08:55:20;17.30;;;10.72;;
59876;SDS011;45749;51.140;17.184;2022-12-07T08:57:47;16.93;;;11.73;;
59876;SDS011;45749;51.140;17.184;2022-12-07T09:00:13;12.55;;;8.58;;
59876;SDS011;45749;51.140;17.184;2022-12-07T09:02:42;15.10;;;9.95;;
59876;SDS011;45749;51.140;17.184;2022-12-07T09:05:10;14.28;;;9.55;;
59876;SDS011;45749;51.140;17.184;2022-12-07T09:07:36;15.00;;;9.45;;
59876;SDS011;45749;51.140;17.184;2022-12-07T09:10:04;13.78;;;8.93;;
59876;SDS011;45749;51.140;17.184;2022-12-07T09:12:31;16.77;;;10.28;;
59876;SDS011;45749;51.140;17.184;2022-12-07T09:14:57;18.42;;;11.85;;
59876;SDS011;45749;51.140;17.184;2022-12-07T09:17:23;15.05;;;9.98;;
59876;SDS011;45749;51.140;17.184;2022-12-07T09:19:49;18.62;;;11.45;;
59876;SDS011;45749;51.140;17.184;2022-12-07T09:22:15;16.57;;;10.85;;
59876;SDS011;45749;51.140;17.184;2022-12-07T09:24:41;23.60;;;14.53;;
59876;SDS011;45749;51.140;17.184;2022-12-07T09:27:08;22.40;;;11.78;;
59876;SDS011;45749;51.140;17.184;2022-12-07T09:29:34;20.75;;;11.30;;
59876;SDS011;45749;51.140;17.184;2022-12-07T09:32:00;15.95;;;11.83;;
59876;SDS011;45749;51.140;17.184;2022-12-07T09:34:26;14.65;;;9.78;;
59876;SDS011;45749;51.140;17.184;2022-12-07T09:36:52;12.53;;;9.05;;
59876;SDS011;45749;51.140;17.184;2022-12-07T09:39:17;13.53;;;8.90;;
59876;SDS011;45749;51.140;17.184;2022-12-07T09:41:44;12.37;;;9.25;;
59876;SDS011;45749;51.140;17.184;2022-12-07T09:44:15;15.48;;;9.10;;
59876;SDS011;45749;51.140;17.184;2022-12-07T09:46:45;9.38;;;6.45;;
59876;SDS011;45749;51.140;17.184;2022-12-07T09:49:12;11.05;;;6.97;;
59876;SDS011;45749;51.140;17.184;2022-12-07T09:51:43;9.80;;;6.03;;
59876;SDS011;45749;51.140;17.184;2022-12-07T09:54:14;10.82;;;6.62;;
59876;SDS011;45749;51.140;17.184;2022-12-07T09:56:42;9.83;;;7.05;;
59876;SDS011;45749;51.140;17.184;2022-12-07T09:59:12;9.88;;;6.78;;
59876;SDS011;45749;51.140;17.184;2022-12-07T10:01:41;8.95;;;6.87;;
59876;SDS011;45749;51.140;17.184;2022-12-07T10:04:18;11.05;;;7.35;;
59876;SDS011;45749;51.140;17.184;2022-12-07T10:06:50;9.60;;;7.60;;
59876;SDS011;45749;51.140;17.184;2022-12-07T10:09:17;10.38;;;7.50;;
59876;SDS011;45749;51.140;17.184;2022-12-07T10:12:00;10.85;;;8.08;;
59876;SDS011;45749;51.140;17.184;2022-12-07T10:14:37;11.60;;;8.90;;
59876;SDS011;45749;51.140;17.184;2022-12-07T10:17:26;8.90;;;6.42;;
59876;SDS011;45749;51.140;17.184;2022-12-07T10:22:55;10.10;;;6.35;;
59876;SDS011;45749;51.140;17.184;2022-12-07T10:25:31;12.75;;;8.65;;
59876;SDS011;45749;51.140;17.184;2022-12-07T10:28:19;15.85;;;9.65;;
59876;SDS011;45749;51.140;17.184;2022-12-07T10:36:21;20.75;;;11.08;;
59876;SDS011;45749;51.140;17.184;2022-12-07T10:39:12;13.88;;;7.42;;
59876;SDS011;45749;51.140;17.184;2022-12-07T10:41:56;7.62;;;5.47;;
59876;SDS011;45749;51.140;17.184;2022-12-07T10:44:31;8.15;;;5.58;;
59876;SDS011;45749;51.140;17.184;2022-12-07T10:50:17;13.03;;;9.10;;
59876;SDS011;45749;51.140;17.184;2022-12-07T11:10:33;9.23;;;6.60;;
59876;SDS011;45749;51.140;17.184;2022-12-07T11:13:29;7.92;;;5.70;;
59876;SDS011;45749;51.140;17.184;2022-12-07T11:16:06;8.83;;;6.08;;
59876;SDS011;45749;51.140;17.184;2022-12-07T11:30:36;9.50;;;4.63;;
59876;SDS011;45749;51.140;17.184;2022-12-07T11:38:22;7.70;;;5.17;;
59876;SDS011;45749;51.140;17.184;2022-12-07T11:41:08;5.15;;;4.20;;
59876;SDS011;45749;51.140;17.184;2022-12-07T11:43:42;5.47;;;3.65;;
59876;SDS011;45749;51.140;17.184;2022-12-07T11:46:11;7.03;;;4.28;;
59876;SDS011;45749;51.140;17.184;2022-12-07T11:51:59;6.87;;;4.53;;
59876;SDS011;45749;51.140;17.184;2022-12-07T11:54:29;5.78;;;3.67;;
59876;SDS011;45749;51.140;17.184;2022-12-07T11:57:03;6.70;;;4.20;;
59876;SDS011;45749;51.140;17.184;2022-12-07T11:59:31;6.20;;;3.98;;
59876;SDS011;45749;51.140;17.184;2022-12-07T12:02:18;6.75;;;4.00;;
59876;SDS011;45749;51.140;17.184;2022-12-07T12:05:12;8.65;;;4.67;;
59876;SDS011;45749;51.140;17.184;2022-12-07T12:07:49;8.78;;;6.47;;
59876;SDS011;45749;51.140;17.184;2022-12-07T12:10:37;8.48;;;5.22;;
59876;SDS011;45749;51.140;17.184;2022-12-07T12:16:04;8.68;;;5.42;;
59876;SDS011;45749;51.140;17.184;2022-12-07T12:18:56;9.08;;;5.95;;
59876;SDS011;45749;51.140;17.184;2022-12-07T12:21:33;10.08;;;5.80;;
59876;SDS011;45749;51.140;17.184;2022-12-07T12:24:12;6.25;;;5.12;;
59876;SDS011;45749;51.140;17.184;2022-12-07T12:26:47;8.53;;;5.15;;
59876;SDS011;45749;51.140;17.184;2022-12-07T12:29:23;8.43;;;5.62;;
59876;SDS011;45749;51.140;17.184;2022-12-07T12:32:19;6.92;;;4.97;;
59876;SDS011;45749;51.140;17.184;2022-12-07T12:42:51;6.53;;;4.15;;
59876;SDS011;45749;51.140;17.184;2022-12-07T12:45:28;10.00;;;7.55;;
59876;SDS011;45749;51.140;17.184;2022-12-07T12:47:59;9.55;;;5.42;;
59876;SDS011;45749;51.140;17.184;2022-12-07T12:50:47;8.13;;;4.37;;
59876;SDS011;45749;51.140;17.184;2022-12-07T12:53:21;9.40;;;6.05;;
59876;SDS011;45749;51.140;17.184;2022-12-07T12:58:46;12.18;;;6.35;;
59876;SDS011;45749;51.140;17.184;2022-12-07T13:01:36;8.08;;;5.55;;
59876;SDS011;45749;51.140;17.184;2022-12-07T13:04:14;7.22;;;5.95;;
59876;SDS011;45749;51.140;17.184;2022-12-07T13:06:45;7.92;;;4.62;;
59876;SDS011;45749;51.140;17.184;2022-12-07T13:09:25;9.75;;;5.72;;
59876;SDS011;45749;51.140;17.184;2022-12-07T13:12:00;6.35;;;4.37;;
59876;SDS011;45749;51.140;17.184;2022-12-07T13:14:54;6.47;;;4.40;;
59876;SDS011;45749;51.140;17.184;2022-12-07T13:20:05;7.62;;;5.15;;
59876;SDS011;45749;51.140;17.184;2022-12-07T13:28:07;10.68;;;6.40;;
59876;SDS011;45749;51.140;17.184;2022-12-07T13:30:34;18.95;;;13.05;;
59876;SDS011;45749;51.140;17.184;2022-12-07T13:33:14;14.23;;;7.55;;
59876;SDS011;45749;51.140;17.184;2022-12-07T13:35:43;9.35;;;6.12;;
59876;SDS011;45749;51.140;17.184;2022-12-07T13:38:48;8.25;;;5.58;;
59876;SDS011;45749;51.140;17.184;2022-12-07T13:41:04;7.87;;;5.72;;
59876;SDS011;45749;51.140;17.184;2022-12-07T13:43:48;9.73;;;4.90;;
59876;SDS011;45749;51.140;17.184;2022-12-07T13:46:35;12.98;;;5.80;;
59876;SDS011;45749;51.140;17.184;2022-12-07T13:49:23;8.50;;;6.15;;
59876;SDS011;45749;51.140;17.184;2022-12-07T13:51:52;11.85;;;8.33;;
59876;SDS011;45749;51.140;17.184;2022-12-07T13:54:19;11.38;;;6.90;;
59876;SDS011;45749;51.140;17.184;2022-12-07T13:56:50;10.32;;;8.18;;
59876;SDS011;45749;51.140;17.184;2022-12-07T13:59:19;14.70;;;7.67;;
59876;SDS011;45749;51.140;17.184;2022-12-07T14:01:48;10.35;;;6.42;;
59876;SDS011;45749;51.140;17.184;2022-12-07T14:06:59;16.17;;;9.75;;
59876;SDS011;45749;51.140;17.184;2022-12-07T14:09:27;11.88;;;8.65;;
59876;SDS011;45749;51.140;17.184;2022-12-07T14:11:56;11.68;;;7.33;;
59876;SDS011;45749;51.140;17.184;2022-12-07T14:14:29;12.93;;;7.92;;
59876;SDS011;45749;51.140;17.184;2022-12-07T14:17:02;10.43;;;8.18;;
59876;SDS011;45749;51.140;17.184;2022-12-07T14:19:50;8.40;;;6.08;;
59876;SDS011;45749;51.140;17.184;2022-12-07T14:22:32;8.65;;;7.12;;
59876;SDS011;45749;51.140;17.184;2022-12-07T14:30:27;10.38;;;5.62;;
59876;SDS011;45749;51.140;17.184;2022-12-07T14:33:00;9.83;;;7.00;;
59876;SDS011;45749;51.140;17.184;2022-12-07T14:35:29;7.75;;;5.60;;
59876;SDS011;45749;51.140;17.184;2022-12-07T14:37:57;18.80;;;9.00;;
59876;SDS011;45749;51.140;17.184;2022-12-07T14:40:24;13.95;;;8.38;;
59876;SDS011;45749;51.140;17.184;2022-12-07T14:42:58;40.33;;;22.95;;
59876;SDS011;45749;51.140;17.184;2022-12-07T14:45:30;14.55;;;8.55;;
59876;SDS011;45749;51.140;17.184;2022-12-07T14:47:56;13.30;;;6.70;;
59876;SDS011;45749;51.140;17.184;2022-12-07T14:50:22;18.17;;;10.00;;
59876;SDS011;45749;51.140;17.184;2022-12-07T14:52:57;11.28;;;6.65;;
59876;SDS011;45749;51.140;17.184;2022-12-07T14:55:26;13.40;;;8.45;;
59876;SDS011;45749;51.140;17.184;2022-12-07T14:57:54;17.20;;;10.15;;
59876;SDS011;45749;51.140;17.184;2022-12-07T15:00:26;15.38;;;10.20;;
59876;SDS011;45749;51.140;17.184;2022-12-07T15:02:51;29.02;;;16.25;;
59876;SDS011;45749;51.140;17.184;2022-12-07T15:05:19;15.23;;;10.38;;
59876;SDS011;45749;51.140;17.184;2022-12-07T15:07:46;15.55;;;9.63;;
59876;SDS011;45749;51.140;17.184;2022-12-07T15:10:18;33.20;;;17.70;;
59876;SDS011;45749;51.140;17.184;2022-12-07T15:12:52;27.65;;;15.28;;
59876;SDS011;45749;51.140;17.184;2022-12-07T15:15:18;25.00;;;14.63;;
59876;SDS011;45749;51.140;17.184;2022-12-07T15:17:44;23.95;;;14.20;;
59876;SDS011;45749;51.140;17.184;2022-12-07T15:20:15;17.23;;;10.58;;
59876;SDS011;45749;51.140;17.184;2022-12-07T15:22:39;15.43;;;8.28;;
59876;SDS011;45749;51.140;17.184;2022-12-07T15:25:05;13.83;;;9.78;;
59876;SDS011;45749;51.140;17.184;2022-12-07T15:27:32;17.52;;;10.65;;
59876;SDS011;45749;51.140;17.184;2022-12-07T15:29:58;20.15;;;10.78;;
59876;SDS011;45749;51.140;17.184;2022-12-07T15:32:24;19.37;;;9.48;;
59876;SDS011;45749;51.140;17.184;2022-12-07T15:34:50;20.92;;;12.18;;
59876;SDS011;45749;51.140;17.184;2022-12-07T15:37:16;23.12;;;15.78;;
59876;SDS011;45749;51.140;17.184;2022-12-07T15:39:42;21.68;;;13.28;;
59876;SDS011;45749;51.140;17.184;2022-12-07T15:42:08;42.30;;;26.17;;
59876;SDS011;45749;51.140;17.184;2022-12-07T15:44:34;30.77;;;17.85;;
59876;SDS011;45749;51.140;17.184;2022-12-07T15:47:18;67.12;;;33.15;;
59876;SDS011;45749;51.140;17.184;2022-12-07T15:49:44;20.90;;;12.60;;
59876;SDS011;45749;51.140;17.184;2022-12-07T15:52:10;18.55;;;11.93;;
59876;SDS011;45749;51.140;17.184;2022-12-07T15:54:36;21.35;;;11.95;;
59876;SDS011;45749;51.140;17.184;2022-12-07T15:57:02;18.37;;;11.60;;
59876;SDS011;45749;51.140;17.184;2022-12-07T15:59:28;18.55;;;11.30;;
59876;SDS011;45749;51.140;17.184;2022-12-07T16:01:55;29.92;;;14.70;;
59876;SDS011;45749;51.140;17.184;2022-12-07T16:04:21;21.45;;;13.25;;
59876;SDS011;45749;51.140;17.184;2022-12-07T16:06:47;24.43;;;13.83;;
59876;SDS011;45749;51.140;17.184;2022-12-07T16:09:15;22.77;;;10.13;;
59876;SDS011;45749;51.140;17.184;2022-12-07T16:11:41;20.35;;;12.58;;
59876;SDS011;45749;51.140;17.184;2022-12-07T16:14:06;22.52;;;12.73;;
59876;SDS011;45749;51.140;17.184;2022-12-07T16:16:32;15.72;;;11.08;;
59876;SDS011;45749;51.140;17.184;2022-12-07T16:18:59;21.42;;;11.95;;
59876;SDS011;45749;51.140;17.184;2022-12-07T16:21:25;24.12;;;13.15;;
59876;SDS011;45749;51.140;17.184;2022-12-07T16:23:50;18.55;;;10.68;;
59876;SDS011;45749;51.140;17.184;2022-12-07T16:26:18;18.82;;;10.58;;
59876;SDS011;45749;51.140;17.184;2022-12-07T16:28:48;25.65;;;14.25;;
59876;SDS011;45749;51.140;17.184;2022-12-07T16:31:15;21.23;;;11.83;;
59876;SDS011;45749;51.140;17.184;2022-12-07T16:33:44;19.95;;;11.73;;
59876;SDS011;45749;51.140;17.184;2022-12-07T16:36:11;18.20;;;11.48;;
59876;SDS011;45749;51.140;17.184;2022-12-07T16:38:40;20.20;;;13.00;;
59876;SDS011;45749;51.140;17.184;2022-12-07T16:41:06;22.20;;;15.00;;
59876;SDS011;45749;51.140;17.184;2022-12-07T16:43:33;28.15;;;17.15;;